createdAt,value
2022-12-11T04:12:16.526Z,-1.97
2022-12-11T04:15:26.349Z,-2.01
2022-12-11T04:18:47.626Z,-2.03
2022-12-11T04:22:08.421Z,-2.03
2022-12-11T04:25:18.191Z,-2.08
2022-12-11T04:28:29.188Z,-2.05
2022-12-11T04:31:38.955Z,-2.04
2022-12-11T04:34:48.797Z,-2.01
2022-12-11T04:37:58.612Z,-1.94
2022-12-11T04:41:11.800Z,-1.81
2022-12-11T04:44:22.992Z,-1.70
2022-12-11T04:47:32.903Z,-1.66
2022-12-11T04:50:42.620Z,-1.61
2022-12-11T04:53:52.389Z,-1.69
2022-12-11T04:57:02.162Z,-1.78
2022-12-11T05:00:14.743Z,-1.75
2022-12-11T05:03:24.636Z,-1.71
2022-12-11T05:06:34.419Z,-1.73
2022-12-11T05:09:44.158Z,-1.72
2022-12-11T05:12:53.907Z,-1.71
2022-12-11T05:16:07.095Z,-1.68
2022-12-11T05:19:17.951Z,-1.68
2022-12-11T05:22:27.596Z,-1.68
2022-12-11T05:25:37.307Z,-1.65
2022-12-11T05:28:48.037Z,-1.67
2022-12-11T05:31:59.043Z,-1.70
2022-12-11T05:35:09.200Z,-1.78
2022-12-11T05:38:19.401Z,-1.79
2022-12-11T05:41:31.175Z,-1.85
2022-12-11T05:44:40.866Z,-1.87
2022-12-11T05:47:51.820Z,-1.87
2022-12-11T05:51:02.464Z,-1.86
2022-12-11T05:54:12.293Z,-1.81
2022-12-11T05:57:22.324Z,-1.75
2022-12-11T06:00:36.019Z,-1.80
2022-12-11T08:06:49.519Z,-1.45
2022-12-11T08:10:01.793Z,-1.39
2022-12-11T08:13:11.613Z,-1.37
2022-12-11T08:16:21.742Z,-1.26
2022-12-11T08:19:31.577Z,-1.18
2022-12-11T08:22:42.584Z,-1.03
2022-12-11T08:25:52.365Z,-0.92
2022-12-11T08:29:03.070Z,-0.83
2022-12-11T08:32:13.975Z,-0.74
2022-12-11T08:35:23.783Z,-0.71
2022-12-11T08:38:35.119Z,-0.75
2022-12-11T08:41:44.840Z,-0.76
2022-12-11T08:44:54.570Z,-0.72
2022-12-11T08:48:04.403Z,-0.70
2022-12-11T08:51:16.448Z,-0.51
2022-12-11T08:54:27.513Z,-0.47
2022-12-11T08:57:39.686Z,-0.40
2022-12-11T09:00:49.395Z,-0.33
2022-12-11T09:03:59.594Z,-0.17
2022-12-11T09:07:09.386Z,-0.10
2022-12-11T09:10:20.687Z,-0.10
2022-12-11T09:13:30.442Z,-0.04
2022-12-11T09:16:41.307Z,0.05
2022-12-11T09:19:51.024Z,0.06
2022-12-11T09:23:00.723Z,0.12
2022-12-11T09:26:17.602Z,0.17
2022-12-11T09:29:27.376Z,0.28
2022-12-11T09:32:37.135Z,0.46
2022-12-11T09:35:46.849Z,0.48
2022-12-11T09:38:57.178Z,0.60
2022-12-11T09:42:15.775Z,0.74
2022-12-11T09:45:25.536Z,0.84
2022-12-11T09:48:36.045Z,0.93
2022-12-11T09:51:51.053Z,0.99
2022-12-11T09:55:03.382Z,0.96
2022-12-11T09:58:25.765Z,0.93
2022-12-11T10:01:45.563Z,0.98
2022-12-11T10:05:07.267Z,1.03
2022-12-11T10:08:24.911Z,1.03
2022-12-11T10:11:56.509Z,1.12
2022-12-11T10:15:25.447Z,1.29
2022-12-11T10:18:35.301Z,1.40
2022-12-11T10:21:45.686Z,1.50
2022-12-11T10:25:10.557Z,1.52
2022-12-11T10:28:22.313Z,1.51
2022-12-11T10:31:43.085Z,1.49
2022-12-11T10:35:00.148Z,1.61
2022-12-11T10:38:16.009Z,1.79
2022-12-11T10:41:37.292Z,1.92
2022-12-11T10:44:57.958Z,1.95
2022-12-11T10:48:13.205Z,2.01
2022-12-11T10:51:26.354Z,2.05
2022-12-11T10:54:39.172Z,2.12
2022-12-11T10:57:56.546Z,2.04
2022-12-11T11:01:09.926Z,2.04
2022-12-11T11:04:26.172Z,2.16
2022-12-11T11:07:35.945Z,2.14
2022-12-11T11:10:54.770Z,2.07
2022-12-11T11:14:08.544Z,2.08
2022-12-11T11:17:18.590Z,2.14
2022-12-11T11:20:32.497Z,2.14
2022-12-11T11:23:46.308Z,2.25
2022-12-11T11:27:14.414Z,2.18
2022-12-11T11:30:27.773Z,2.23
2022-12-11T11:33:46.152Z,2.24
2022-12-11T11:37:05.570Z,2.33
2022-12-11T11:40:20.835Z,2.50
2022-12-11T11:43:38.807Z,2.60
2022-12-11T11:46:54.423Z,2.70
2022-12-11T11:50:09.467Z,2.67
2022-12-11T11:53:25.215Z,2.59
2022-12-11T11:56:38.056Z,2.49
2022-12-11T11:59:53.431Z,2.51
2022-12-11T12:03:07.060Z,2.46
2022-12-11T12:06:29.345Z,2.31
2022-12-11T12:09:50.186Z,2.36
2022-12-11T12:13:23.870Z,2.36
2022-12-11T12:16:53.468Z,2.32
2022-12-11T12:20:15.032Z,2.36
2022-12-11T12:23:41.151Z,2.23
2022-12-11T12:26:57.987Z,2.24
2022-12-11T12:30:17.399Z,2.16
2022-12-11T12:33:42.298Z,2.25
2022-12-11T12:37:01.015Z,2.33
2022-12-11T12:40:19.484Z,2.30
2022-12-11T12:43:48.270Z,2.40
2022-12-11T12:47:01.849Z,2.29
2022-12-11T12:50:15.677Z,2.31
2022-12-11T12:53:28.485Z,2.41
2022-12-11T12:56:40.617Z,2.48
2022-12-11T12:59:56.338Z,2.47
2022-12-11T13:03:15.111Z,2.43
2022-12-11T13:06:32.712Z,2.41
2022-12-11T13:09:42.795Z,2.35
2022-12-11T13:12:53.132Z,2.25
2022-12-11T13:16:24.489Z,2.21
2022-12-11T13:19:42.120Z,2.25
2022-12-11T13:22:58.082Z,2.23
2022-12-11T13:26:10.373Z,2.09
2022-12-11T13:29:31.020Z,2.01
2022-12-11T13:32:50.288Z,1.84
2022-12-11T13:36:25.221Z,1.70
2022-12-11T13:39:38.339Z,1.59
2022-12-11T13:42:52.047Z,1.56
2022-12-11T13:46:06.473Z,1.49
2022-12-11T13:49:24.418Z,1.50
2022-12-11T13:52:34.046Z,1.40
2022-12-11T13:55:43.919Z,1.48
2022-12-11T13:58:54.086Z,1.41
2022-12-11T14:02:15.413Z,1.41
2022-12-11T14:05:26.637Z,1.52
2022-12-11T14:08:40.463Z,1.53
2022-12-11T14:11:56.479Z,1.56
2022-12-11T14:15:07.453Z,1.59
2022-12-11T14:18:21.893Z,1.59
2022-12-11T14:21:33.103Z,1.58
2022-12-11T14:24:50.990Z,1.49
2022-12-11T14:28:01.633Z,1.35
2022-12-11T14:31:16.654Z,1.40
2022-12-11T14:34:29.955Z,1.51
2022-12-11T14:37:41.950Z,1.54
2022-12-11T14:40:57.349Z,1.55
2022-12-11T14:44:09.057Z,1.49
2022-12-11T14:47:22.674Z,1.38
2022-12-11T14:50:38.883Z,1.32
2022-12-11T14:53:54.062Z,1.38
2022-12-11T14:57:06.965Z,1.44
2022-12-11T15:00:24.888Z,1.45
2022-12-11T15:03:36.573Z,1.38
2022-12-11T15:06:48.115Z,1.32
2022-12-11T15:09:59.316Z,1.28
2022-12-11T15:13:10.012Z,1.23
2022-12-11T15:16:20.976Z,1.21
2022-12-11T15:19:33.884Z,1.01
2022-12-11T15:22:44.496Z,0.93
2022-12-11T15:25:57.922Z,0.82
2022-12-11T15:29:26.194Z,0.81
2022-12-11T15:32:35.947Z,0.78
2022-12-11T15:35:55.338Z,0.83
2022-12-11T15:39:08.694Z,0.88
2022-12-11T15:42:25.795Z,0.80
2022-12-11T15:45:36.652Z,0.76
2022-12-11T15:48:48.078Z,0.73
2022-12-11T15:51:57.843Z,0.72
2022-12-11T15:55:08.119Z,0.74
2022-12-11T15:58:21.464Z,0.56
2022-12-11T16:01:31.507Z,0.53
2022-12-11T16:04:41.571Z,0.59
2022-12-11T16:07:52.257Z,0.63
2022-12-11T16:11:02.083Z,0.68
2022-12-11T16:14:13.183Z,0.73
2022-12-11T16:17:22.904Z,0.70
2022-12-11T16:20:33.427Z,0.71
2022-12-11T16:23:43.098Z,0.70
2022-12-11T16:26:52.787Z,0.65
2022-12-11T16:30:07.038Z,0.68
2022-12-11T16:33:17.082Z,0.69
2022-12-11T16:36:26.884Z,0.71
2022-12-11T16:39:38.412Z,0.65
2022-12-11T16:42:49.246Z,0.59
2022-12-11T16:46:00.295Z,0.61
2022-12-11T16:49:09.996Z,0.63
2022-12-11T16:52:22.312Z,0.63
2022-12-11T16:55:32.375Z,0.65
2022-12-11T16:58:42.207Z,0.62
2022-12-11T17:01:53.246Z,0.62
2022-12-11T17:05:03.119Z,0.59
2022-12-11T17:08:12.863Z,0.52
2022-12-11T17:11:26.144Z,0.52
2022-12-11T17:14:35.852Z,0.51
2022-12-11T17:17:46.931Z,0.53
2022-12-11T17:20:56.688Z,0.50
2022-12-11T17:24:07.130Z,0.49
2022-12-11T17:27:16.937Z,0.53
2022-12-11T17:30:26.870Z,0.58
2022-12-11T17:33:38.891Z,0.61
2022-12-11T17:36:48.593Z,0.65
2022-12-11T17:39:58.284Z,0.68
2022-12-11T17:43:09.384Z,0.69
2022-12-11T17:46:20.007Z,0.70
2022-12-11T17:49:31.168Z,0.66
2022-12-11T17:52:44.368Z,0.61
2022-12-11T17:55:54.317Z,0.51
2022-12-11T17:59:04.716Z,0.53
2022-12-11T18:02:14.477Z,0.54
2022-12-11T18:05:25.636Z,0.51
2022-12-11T18:08:35.536Z,0.43
2022-12-11T18:11:45.521Z,0.46
2022-12-11T18:14:55.156Z,0.55
2022-12-11T18:18:05.326Z,0.62
2022-12-11T18:21:19.549Z,0.67
2022-12-11T18:24:31.799Z,0.68
2022-12-11T18:27:41.479Z,0.69
2022-12-11T18:30:51.689Z,0.72
2022-12-11T18:34:01.736Z,0.73
2022-12-11T18:37:12.721Z,0.72
2022-12-11T18:40:22.523Z,0.71
2022-12-11T18:43:32.292Z,0.74
2022-12-11T18:46:42.048Z,0.69
2022-12-11T18:49:51.977Z,0.65
2022-12-11T18:53:03.777Z,0.65
2022-12-11T18:56:15.532Z,0.60
2022-12-11T18:59:25.303Z,0.61
2022-12-11T19:02:35.584Z,0.60
2022-12-11T19:05:45.344Z,0.62
2022-12-11T19:08:56.342Z,0.63
2022-12-11T19:12:06.698Z,0.65
2022-12-11T19:15:19.590Z,0.63
2022-12-11T19:18:33.212Z,0.66
2022-12-11T19:21:43.993Z,0.67
2022-12-11T19:24:55.076Z,0.69
2022-12-11T19:28:05.302Z,0.72
2022-12-11T19:31:17.487Z,0.72
2022-12-11T19:34:27.193Z,0.69
2022-12-11T19:37:36.963Z,0.71
2022-12-11T19:40:48.383Z,0.73
2022-12-11T19:43:58.974Z,0.69
2022-12-11T19:47:08.808Z,0.66
2022-12-11T19:50:18.752Z,0.62
2022-12-11T19:53:30.031Z,0.61
2022-12-11T19:56:41.199Z,0.60
2022-12-11T19:59:56.827Z,0.60
2022-12-11T20:03:06.986Z,0.58
2022-12-11T20:06:16.906Z,0.53
2022-12-11T20:09:26.689Z,0.43
2022-12-11T20:12:37.756Z,0.39
2022-12-11T20:15:47.457Z,0.37
2022-12-11T20:18:57.564Z,0.33
2022-12-11T20:22:07.529Z,0.31
2022-12-11T20:25:17.449Z,0.32
2022-12-11T20:28:28.564Z,0.33
2022-12-11T20:31:38.421Z,0.34
2022-12-11T20:34:48.244Z,0.32
2022-12-11T20:37:58.045Z,0.25
2022-12-11T20:41:12.781Z,0.28
2022-12-11T20:44:23.822Z,0.30
2022-12-11T20:47:33.665Z,0.35
2022-12-11T20:50:43.603Z,0.35
2022-12-11T20:53:58.308Z,0.28
2022-12-11T20:57:08.186Z,0.20
2022-12-11T21:00:20.077Z,0.17
2022-12-11T21:03:29.819Z,0.14
2022-12-11T21:06:41.959Z,0.17
2022-12-11T21:09:51.693Z,0.20
2022-12-11T21:13:01.437Z,0.26
2022-12-11T21:16:13.140Z,0.29
2022-12-11T21:19:23.475Z,0.29
2022-12-11T21:22:33.539Z,0.30
2022-12-11T21:25:43.486Z,0.26
2022-12-11T21:28:53.529Z,0.25
2022-12-11T21:32:05.318Z,0.27
2022-12-11T21:35:15.152Z,0.26
2022-12-11T21:38:25.410Z,0.23
2022-12-11T21:41:35.314Z,0.12
2022-12-11T21:48:16.800Z,0.02
2022-12-11T21:51:34.317Z,-0.02
2022-12-11T21:54:46.207Z,-0.02
2022-12-11T21:57:56.372Z,-0.03
2022-12-11T22:01:07.797Z,-0.04
2022-12-11T22:04:18.873Z,-0.03
2022-12-11T22:07:28.693Z,0.01
2022-12-11T22:10:38.552Z,-0.07
2022-12-11T22:13:48.266Z,-0.13
2022-12-11T22:16:58.124Z,-0.09
2022-12-11T22:20:10.134Z,-0.11
2022-12-11T22:23:19.976Z,-0.08
2022-12-11T22:26:30.201Z,-0.04
2022-12-11T22:29:39.960Z,-0.05
2022-12-11T22:32:49.814Z,-0.09
2022-12-11T22:36:01.514Z,-0.15
2022-12-11T22:39:11.356Z,-0.17
2022-12-11T22:42:21.281Z,-0.26
2022-12-11T22:45:31.131Z,-0.16
2022-12-11T22:48:40.909Z,-0.08
2022-12-11T22:51:51.834Z,-0.04
2022-12-11T22:55:01.797Z,-0.05
2022-12-11T22:58:11.506Z,-0.02
2022-12-11T23:01:23.788Z,-0.01
2022-12-11T23:04:33.811Z,-0.01
2022-12-11T23:07:45.011Z,-0.04
2022-12-11T23:10:54.953Z,-0.08
2022-12-11T23:14:05.750Z,-0.14
2022-12-11T23:17:15.600Z,-0.18
2022-12-11T23:20:26.263Z,-0.19
2022-12-11T23:23:37.305Z,-0.19
2022-12-11T23:26:48.167Z,-0.18
2022-12-11T23:29:58.109Z,-0.18
2022-12-11T23:33:08.386Z,-0.19
2022-12-11T23:36:18.721Z,-0.16
2022-12-11T23:39:29.921Z,-0.12
2022-12-11T23:42:40.654Z,-0.10
2022-12-11T23:45:50.605Z,-0.08
2022-12-11T23:49:00.342Z,-0.06
2022-12-11T23:52:12.247Z,-0.09
